sensor_id;sensor_type;location;lat;lon;timestamp;pressure;altitude;pressure_sealevel;temperature;humidity
59939;BME280;45801;51.810;19.444;2023-04-02T00:00:09;98203.33;;;6.20;78.16
59939;BME280;45801;51.810;19.444;2023-04-02T00:03:01;98202.98;;;6.29;77.91
59939;BME280;45801;51.810;19.444;2023-04-02T00:05:40;98209.73;;;6.32;77.47
59939;BME280;45801;51.810;19.444;2023-04-02T00:08:19;98205.45;;;6.25;77.36
59939;BME280;45801;51.810;19.444;2023-04-02T00:13:23;98205.27;;;6.21;77.46
59939;BME280;45801;51.810;19.444;2023-04-02T00:15:53;98204.14;;;6.18;77.55
59939;BME280;45801;51.810;19.444;2023-04-02T00:18:23;98203.16;;;6.20;77.68
59939;BME280;45801;51.810;19.444;2023-04-02T00:21:20;98202.27;;;6.24;77.77
59939;BME280;45801;51.810;19.444;2023-04-02T00:23:47;98208.77;;;6.21;77.39
59939;BME280;45801;51.810;19.444;2023-04-02T00:26:20;98212.47;;;6.18;77.24
59939;BME280;45801;51.810;19.444;2023-04-02T00:28:48;98215.82;;;6.15;77.65
59939;BME280;45801;51.810;19.444;2023-04-02T00:31:16;98217.09;;;6.13;77.57
59939;BME280;45801;51.810;19.444;2023-04-02T00:33:44;98220.29;;;6.10;77.67
59939;BME280;45801;51.810;19.444;2023-04-02T00:36:11;98217.27;;;6.09;77.62
59939;BME280;45801;51.810;19.444;2023-04-02T00:38:38;98221.73;;;6.19;77.95
59939;BME280;45801;51.810;19.444;2023-04-02T00:41:18;98223.08;;;6.34;77.15
59939;BME280;45801;51.810;19.444;2023-04-02T00:43:47;98226.34;;;6.33;76.83
59939;BME280;45801;51.810;19.444;2023-04-02T00:46:18;98228.84;;;6.31;77.06
59939;BME280;45801;51.810;19.444;2023-04-02T00:51:58;98233.70;;;6.19;76.83
59939;BME280;45801;51.810;19.444;2023-04-02T00:54:29;98234.41;;;6.15;77.27
59939;BME280;45801;51.810;19.444;2023-04-02T00:56:57;98238.98;;;6.09;76.90
59939;BME280;45801;51.810;19.444;2023-04-02T00:59:30;98241.74;;;6.08;77.36
59939;BME280;45801;51.810;19.444;2023-04-02T01:04:57;98243.30;;;5.96;77.33
59939;BME280;45801;51.810;19.444;2023-04-02T01:10:54;98250.80;;;5.86;77.69
59939;BME280;45801;51.810;19.444;2023-04-02T01:13:30;98255.84;;;5.90;77.79
59939;BME280;45801;51.810;19.444;2023-04-02T01:16:05;98256.84;;;5.93;77.60
59939;BME280;45801;51.810;19.444;2023-04-02T01:18:49;98259.23;;;5.88;77.41
59939;BME280;45801;51.810;19.444;2023-04-02T01:24:33;98256.67;;;5.96;77.62
59939;BME280;45801;51.810;19.444;2023-04-02T01:27:06;98255.38;;;5.98;77.56
59939;BME280;45801;51.810;19.444;2023-04-02T01:29:43;98255.13;;;6.04;77.49
59939;BME280;45801;51.810;19.444;2023-04-02T01:32:14;98257.18;;;6.08;77.08
59939;BME280;45801;51.810;19.444;2023-04-02T01:34:45;98258.40;;;6.07;76.88
59939;BME280;45801;51.810;19.444;2023-04-02T01:37:41;98259.67;;;6.08;77.06
59939;BME280;45801;51.810;19.444;2023-04-02T01:40:34;98262.18;;;6.10;76.90
59939;BME280;45801;51.810;19.444;2023-04-02T01:43:07;98268.11;;;6.15;76.99
59939;BME280;45801;51.810;19.444;2023-04-02T01:45:38;98271.20;;;6.18;76.76
59939;BME280;45801;51.810;19.444;2023-04-02T01:48:08;98271.17;;;6.21;76.96
59939;BME280;45801;51.810;19.444;2023-04-02T01:50:39;98275.66;;;6.24;76.54
59939;BME280;45801;51.810;19.444;2023-04-02T01:53:09;98274.26;;;6.20;76.51
59939;BME280;45801;51.810;19.444;2023-04-02T01:58:03;98279.73;;;6.10;76.37
59939;BME280;45801;51.810;19.444;2023-04-02T02:00:31;98280.13;;;6.11;76.66
59939;BME280;45801;51.810;19.444;2023-04-02T02:03:00;98280.54;;;6.13;76.80
59939;BME280;45801;51.810;19.444;2023-04-02T02:05:27;98284.52;;;6.13;76.36
59939;BME280;45801;51.810;19.444;2023-04-02T02:07:55;98285.24;;;6.13;76.56
59939;BME280;45801;51.810;19.444;2023-04-02T02:10:34;98286.63;;;6.13;76.21
59939;BME280;45801;51.810;19.444;2023-04-02T02:13:01;98290.66;;;6.10;76.50
59939;BME280;45801;51.810;19.444;2023-04-02T02:15:31;98289.26;;;6.17;76.56
59939;BME280;45801;51.810;19.444;2023-04-02T02:18:02;98290.27;;;6.20;76.16
59939;BME280;45801;51.810;19.444;2023-04-02T02:20:30;98296.36;;;6.20;76.21
59939;BME280;45801;51.810;19.444;2023-04-02T02:22:58;98299.23;;;6.18;76.02
59939;BME280;45801;51.810;19.444;2023-04-02T02:25:30;98300.27;;;6.14;76.15
59939;BME280;45801;51.810;19.444;2023-04-02T02:28:08;98304.35;;;6.13;76.14
59939;BME280;45801;51.810;19.444;2023-04-02T02:30:52;98308.14;;;6.16;76.32
59939;BME280;45801;51.810;19.444;2023-04-02T02:33:31;98308.41;;;6.14;75.90
59939;BME280;45801;51.810;19.444;2023-04-02T02:36:37;98305.25;;;6.10;75.91
59939;BME280;45801;51.810;19.444;2023-04-02T02:39:19;98305.38;;;6.09;75.99
59939;BME280;45801;51.810;19.444;2023-04-02T02:41:51;98309.99;;;6.10;76.15
59939;BME280;45801;51.810;19.444;2023-04-02T02:44:23;98308.65;;;6.11;76.07
59939;BME280;45801;51.810;19.444;2023-04-02T02:46:59;98313.10;;;6.10;75.49
59939;BME280;45801;51.810;19.444;2023-04-02T02:49:31;98312.30;;;6.08;75.74
59939;BME280;45801;51.810;19.444;2023-04-02T02:52:05;98320.08;;;6.10;75.94
59939;BME280;45801;51.810;19.444;2023-04-02T02:54:41;98324.41;;;6.06;75.37
59939;BME280;45801;51.810;19.444;2023-04-02T02:57:14;98327.54;;;6.03;75.67
59939;BME280;45801;51.810;19.444;2023-04-02T02:59:44;98332.30;;;5.93;75.75
59939;BME280;45801;51.810;19.444;2023-04-02T03:02:13;98338.04;;;5.86;75.93
59939;BME280;45801;51.810;19.444;2023-04-02T03:04:47;98340.37;;;5.84;75.98
59939;BME280;45801;51.810;19.444;2023-04-02T03:07:15;98342.52;;;5.86;76.15
59939;BME280;45801;51.810;19.444;2023-04-02T03:12:43;98346.64;;;5.81;75.96
59939;BME280;45801;51.810;19.444;2023-04-02T03:18:01;98351.04;;;5.78;75.73
59939;BME280;45801;51.810;19.444;2023-04-02T03:28:35;98363.89;;;5.85;76.24
59939;BME280;45801;51.810;19.444;2023-04-02T03:31:12;98361.71;;;5.87;75.78
59939;BME280;45801;51.810;19.444;2023-04-02T03:33:50;98364.48;;;5.83;75.38
59939;BME280;45801;51.810;19.444;2023-04-02T03:39:25;98368.26;;;5.64;75.98
59939;BME280;45801;51.810;19.444;2023-04-02T03:42:01;98370.98;;;5.59;76.32
59939;BME280;45801;51.810;19.444;2023-04-02T03:44:35;98371.11;;;5.58;76.23
59939;BME280;45801;51.810;19.444;2023-04-02T03:47:10;98373.61;;;5.56;76.47
59939;BME280;45801;51.810;19.444;2023-04-02T03:49:46;98374.36;;;5.61;76.38
59939;BME280;45801;51.810;19.444;2023-04-02T03:52:21;98378.06;;;5.69;76.37
59939;BME280;45801;51.810;19.444;2023-04-02T03:54:49;98383.00;;;5.71;76.21
59939;BME280;45801;51.810;19.444;2023-04-02T03:57:28;98383.48;;;5.70;76.01
59939;BME280;45801;51.810;19.444;2023-04-02T04:00:04;98385.41;;;5.70;76.02
59939;BME280;45801;51.810;19.444;2023-04-02T04:02:38;98392.64;;;5.72;75.99
59939;BME280;45801;51.810;19.444;2023-04-02T04:05:18;98395.05;;;5.69;75.68
59939;BME280;45801;51.810;19.444;2023-04-02T04:07:50;98402.36;;;5.69;75.68
59939;BME280;45801;51.810;19.444;2023-04-02T04:10:23;98407.24;;;5.69;75.68
59939;BME280;45801;51.810;19.444;2023-04-02T04:12:53;98409.91;;;5.70;75.48
59939;BME280;45801;51.810;19.444;2023-04-02T04:15:40;98414.93;;;5.66;75.38
59939;BME280;45801;51.810;19.444;2023-04-02T04:18:28;98422.64;;;5.54;75.35
59939;BME280;45801;51.810;19.444;2023-04-02T04:21:21;98427.57;;;5.52;75.60
59939;BME280;45801;51.810;19.444;2023-04-02T04:24:00;98431.13;;;5.50;75.63
59939;BME280;45801;51.810;19.444;2023-04-02T04:26:42;98435.44;;;5.49;75.34
59939;BME280;45801;51.810;19.444;2023-04-02T04:29:47;98439.16;;;5.44;75.18
59939;BME280;45801;51.810;19.444;2023-04-02T04:32:26;98446.88;;;5.42;75.34
59939;BME280;45801;51.810;19.444;2023-04-02T04:35:01;98449.48;;;5.42;75.31
59939;BME280;45801;51.810;19.444;2023-04-02T04:37:35;98455.77;;;5.39;75.30
59939;BME280;45801;51.810;19.444;2023-04-02T04:40:18;98458.70;;;5.32;75.54
59939;BME280;45801;51.810;19.444;2023-04-02T04:42:47;98460.82;;;5.32;75.67
59939;BME280;45801;51.810;19.444;2023-04-02T04:46:07;98463.52;;;5.27;75.58
59939;BME280;45801;51.810;19.444;2023-04-02T04:48:33;98461.98;;;5.14;75.65
59939;BME280;45801;51.810;19.444;2023-04-02T04:51:09;98463.93;;;5.09;76.03
59939;BME280;45801;51.810;19.444;2023-04-02T04:53:47;98462.95;;;5.10;76.19
59939;BME280;45801;51.810;19.444;2023-04-02T04:56:22;98464.23;;;5.14;76.60
59939;BME280;45801;51.810;19.444;2023-04-02T04:58:57;98468.60;;;5.15;76.24
59939;BME280;45801;51.810;19.444;2023-04-02T05:01:39;98477.16;;;5.06;75.91
59939;BME280;45801;51.810;19.444;2023-04-02T05:04:38;98483.48;;;4.97;76.13
59939;BME280;45801;51.810;19.444;2023-04-02T05:07:14;98493.23;;;4.95;76.12
59939;BME280;45801;51.810;19.444;2023-04-02T05:09:49;98494.54;;;4.93;75.81
59939;BME280;45801;51.810;19.444;2023-04-02T05:12:41;98497.33;;;4.90;75.77
59939;BME280;45801;51.810;19.444;2023-04-02T05:15:29;98496.55;;;4.92;75.81
59939;BME280;45801;51.810;19.444;2023-04-02T05:18:34;98496.10;;;4.90;75.29
59939;BME280;45801;51.810;19.444;2023-04-02T05:23:36;98504.11;;;4.65;75.41
59939;BME280;45801;51.810;19.444;2023-04-02T05:26:13;98505.70;;;4.53;75.82
59939;BME280;45801;51.810;19.444;2023-04-02T05:29:24;98514.56;;;4.50;75.92
59939;BME280;45801;51.810;19.444;2023-04-02T05:32:24;98521.13;;;4.40;76.14
59939;BME280;45801;51.810;19.444;2023-04-02T05:34:53;98532.95;;;4.28;76.15
59939;BME280;45801;51.810;19.444;2023-04-02T05:37:25;98536.73;;;4.22;76.37
59939;BME280;45801;51.810;19.444;2023-04-02T05:39:55;98538.77;;;4.24;76.35
59939;BME280;45801;51.810;19.444;2023-04-02T05:42:30;98539.08;;;4.26;76.37
59939;BME280;45801;51.810;19.444;2023-04-02T05:45:14;98543.52;;;4.28;76.67
59939;BME280;45801;51.810;19.444;2023-04-02T05:47:44;98549.37;;;4.24;76.85
59939;BME280;45801;51.810;19.444;2023-04-02T05:50:18;98551.63;;;4.27;77.01
59939;BME280;45801;51.810;19.444;2023-04-02T05:53:01;98551.14;;;4.31;77.18
59939;BME280;45801;51.810;19.444;2023-04-02T05:55:37;98546.75;;;4.39;77.10
59939;BME280;45801;51.810;19.444;2023-04-02T06:04:01;98551.85;;;4.44;76.46
59939;BME280;45801;51.810;19.444;2023-04-02T06:09:12;98557.73;;;4.34;77.08
59939;BME280;45801;51.810;19.444;2023-04-02T06:11:45;98562.40;;;4.40;77.01
59939;BME280;45801;51.810;19.444;2023-04-02T06:14:14;98568.13;;;4.50;77.11
59939;BME280;45801;51.810;19.444;2023-04-02T06:16:43;98575.73;;;4.49;76.77
59939;BME280;45801;51.810;19.444;2023-04-02T06:19:32;98579.35;;;4.49;76.57
59939;BME280;45801;51.810;19.444;2023-04-02T06:22:17;98585.29;;;4.52;76.53
59939;BME280;45801;51.810;19.444;2023-04-02T06:24:49;98594.06;;;4.51;76.39
59939;BME280;45801;51.810;19.444;2023-04-02T06:27:18;98598.80;;;4.46;76.56
59939;BME280;45801;51.810;19.444;2023-04-02T06:29:48;98603.51;;;4.43;76.41
59939;BME280;45801;51.810;19.444;2023-04-02T06:32:21;98605.63;;;4.41;76.52
59939;BME280;45801;51.810;19.444;2023-04-02T06:34:48;98608.64;;;4.42;76.48
59939;BME280;45801;51.810;19.444;2023-04-02T06:37:22;98612.17;;;4.43;76.62
59939;BME280;45801;51.810;19.444;2023-04-02T06:39:52;98614.25;;;4.43;76.76
59939;BME280;45801;51.810;19.444;2023-04-02T06:42:23;98620.19;;;4.44;76.69
59939;BME280;45801;51.810;19.444;2023-04-02T06:44:51;98620.04;;;4.48;76.71
59939;BME280;45801;51.810;19.444;2023-04-02T06:47:36;98623.41;;;4.46;76.24
59939;BME280;45801;51.810;19.444;2023-04-02T06:50:27;98625.83;;;4.46;76.42
59939;BME280;45801;51.810;19.444;2023-04-02T06:53:04;98629.20;;;4.47;76.51
59939;BME280;45801;51.810;19.444;2023-04-02T06:55:51;98636.48;;;4.47;76.27
59939;BME280;45801;51.810;19.444;2023-04-02T06:58:20;98639.30;;;4.39;76.26
59939;BME280;45801;51.810;19.444;2023-04-02T07:00:48;98639.20;;;4.31;76.34
59939;BME280;45801;51.810;19.444;2023-04-02T07:03:22;98640.55;;;4.24;76.37
59939;BME280;45801;51.810;19.444;2023-04-02T07:05:50;98642.17;;;4.22;76.81
59939;BME280;45801;51.810;19.444;2023-04-02T07:08:16;98645.71;;;4.27;77.12
59939;BME280;45801;51.810;19.444;2023-04-02T07:10:43;98649.83;;;4.35;77.00
59939;BME280;45801;51.810;19.444;2023-04-02T07:13:18;98650.02;;;4.41;76.74
59939;BME280;45801;51.810;19.444;2023-04-02T07:15:49;98653.32;;;4.38;76.51
59939;BME280;45801;51.810;19.444;2023-04-02T07:18:30;98658.61;;;4.46;76.63
59939;BME280;45801;51.810;19.444;2023-04-02T07:20:57;98659.80;;;4.51;76.51
59939;BME280;45801;51.810;19.444;2023-04-02T07:23:23;98660.84;;;4.51;76.56
59939;BME280;45801;51.810;19.444;2023-04-02T07:25:52;98665.55;;;4.55;76.24
59939;BME280;45801;51.810;19.444;2023-04-02T07:28:20;98669.80;;;4.59;76.47
59939;BME280;45801;51.810;19.444;2023-04-02T07:30:46;98676.30;;;4.67;76.57
59939;BME280;45801;51.810;19.444;2023-04-02T07:33:18;98677.70;;;4.73;76.20
59939;BME280;45801;51.810;19.444;2023-04-02T07:35:46;98681.42;;;4.66;76.00
59939;BME280;45801;51.810;19.444;2023-04-02T07:38:13;98684.40;;;4.60;76.03
59939;BME280;45801;51.810;19.444;2023-04-02T07:40:39;98689.36;;;4.58;76.08
59939;BME280;45801;51.810;19.444;2023-04-02T07:43:06;98690.96;;;4.63;76.55
59939;BME280;45801;51.810;19.444;2023-04-02T07:45:33;98695.10;;;4.53;76.16
59939;BME280;45801;51.810;19.444;2023-04-02T07:48:06;98698.61;;;4.51;75.97
59939;BME280;45801;51.810;19.444;2023-04-02T07:50:34;98704.33;;;4.51;76.32
59939;BME280;45801;51.810;19.444;2023-04-02T07:53:01;98706.91;;;4.41;76.34
59939;BME280;45801;51.810;19.444;2023-04-02T07:55:27;98712.20;;;4.40;76.49
59939;BME280;45801;51.810;19.444;2023-04-02T07:57:56;98712.52;;;4.39;76.28
59939;BME280;45801;51.810;19.444;2023-04-02T08:00:24;98720.38;;;4.32;76.94
59939;BME280;45801;51.810;19.444;2023-04-02T08:02:52;98719.57;;;4.30;77.19
59939;BME280;45801;51.810;19.444;2023-04-02T08:05:18;98723.94;;;4.33;77.32
59939;BME280;45801;51.810;19.444;2023-04-02T08:07:55;98728.39;;;4.32;77.24
59939;BME280;45801;51.810;19.444;2023-04-02T08:10:22;98731.18;;;4.39;77.12
59939;BME280;45801;51.810;19.444;2023-04-02T08:12:49;98734.63;;;4.44;77.13
59939;BME280;45801;51.810;19.444;2023-04-02T08:15:16;98735.73;;;4.51;77.06
59939;BME280;45801;51.810;19.444;2023-04-02T08:17:45;98742.14;;;4.57;76.55
59939;BME280;45801;51.810;19.444;2023-04-02T08:20:16;98742.13;;;4.62;76.50
59939;BME280;45801;51.810;19.444;2023-04-02T08:22:45;98744.44;;;4.67;76.21
59939;BME280;45801;51.810;19.444;2023-04-02T08:25:11;98741.91;;;4.68;76.22
59939;BME280;45801;51.810;19.444;2023-04-02T08:27:38;98744.03;;;4.74;76.19
59939;BME280;45801;51.810;19.444;2023-04-02T08:30:06;98745.59;;;4.74;75.73
59939;BME280;45801;51.810;19.444;2023-04-02T08:32:33;98755.61;;;4.67;75.70
59939;BME280;45801;51.810;19.444;2023-04-02T08:35:00;98761.60;;;4.60;76.10
59939;BME280;45801;51.810;19.444;2023-04-02T08:37:27;98766.61;;;4.57;76.03
59939;BME280;45801;51.810;19.444;2023-04-02T08:39:54;98767.75;;;4.59;76.11
59939;BME280;45801;51.810;19.444;2023-04-02T08:47:37;98775.75;;;4.56;75.88
59939;BME280;45801;51.810;19.444;2023-04-02T08:52:51;98784.88;;;4.29;76.69
59939;BME280;45801;51.810;19.444;2023-04-02T08:55:27;98789.53;;;4.32;77.01
59939;BME280;45801;51.810;19.444;2023-04-02T09:00:53;98795.56;;;4.28;76.92
59939;BME280;45801;51.810;19.444;2023-04-02T09:03:33;98796.81;;;4.32;76.83
59939;BME280;45801;51.810;19.444;2023-04-02T09:06:01;98798.30;;;4.30;76.86
59939;BME280;45801;51.810;19.444;2023-04-02T09:08:30;98803.30;;;4.36;77.58
59939;BME280;45801;51.810;19.444;2023-04-02T09:14:02;98811.85;;;4.48;77.02
59939;BME280;45801;51.810;19.444;2023-04-02T09:16:39;98812.88;;;4.51;76.98
59939;BME280;45801;51.810;19.444;2023-04-02T09:19:30;98820.52;;;4.45;76.55
59939;BME280;45801;51.810;19.444;2023-04-02T09:22:07;98825.02;;;4.45;76.89
59939;BME280;45801;51.810;19.444;2023-04-02T09:24:35;98828.10;;;4.53;76.92
59939;BME280;45801;51.810;19.444;2023-04-02T09:27:03;98835.52;;;4.58;76.34
59939;BME280;45801;51.810;19.444;2023-04-02T09:29:44;98837.38;;;4.63;76.36
59939;BME280;45801;51.810;19.444;2023-04-02T09:32:26;98841.35;;;4.65;75.69
59939;BME280;45801;51.810;19.444;2023-04-02T09:35:11;98847.24;;;4.71;76.25
59939;BME280;45801;51.810;19.444;2023-04-02T09:37:42;98851.52;;;4.82;76.28
59939;BME280;45801;51.810;19.444;2023-04-02T09:40:16;98853.48;;;4.85;75.86
59939;BME280;45801;51.810;19.444;2023-04-02T09:42:44;98854.72;;;4.83;75.92
59939;BME280;45801;51.810;19.444;2023-04-02T09:45:28;98858.20;;;4.80;75.79
59939;BME280;45801;51.810;19.444;2023-04-02T09:47:56;98860.86;;;4.81;76.12
59939;BME280;45801;51.810;19.444;2023-04-02T09:50:27;98866.21;;;4.87;76.22
59939;BME280;45801;51.810;19.444;2023-04-02T09:52:53;98871.24;;;4.92;76.14
59939;BME280;45801;51.810;19.444;2023-04-02T09:58:07;98873.77;;;4.91;75.73
59939;BME280;45801;51.810;19.444;2023-04-02T10:00:33;98879.51;;;4.83;75.41
59939;BME280;45801;51.810;19.444;2023-04-02T10:06:11;98883.16;;;4.74;76.08
59939;BME280;45801;51.810;19.444;2023-04-02T10:08:40;98887.05;;;4.81;76.14
59939;BME280;45801;51.810;19.444;2023-04-02T10:11:13;98886.84;;;4.75;75.56
59939;BME280;45801;51.810;19.444;2023-04-02T10:16:22;98889.52;;;4.76;76.00
59939;BME280;45801;51.810;19.444;2023-04-02T10:18:54;98892.16;;;4.76;75.84
59939;BME280;45801;51.810;19.444;2023-04-02T10:21:25;98893.64;;;4.78;76.10
59939;BME280;45801;51.810;19.444;2023-04-02T10:23:53;98897.27;;;4.77;75.77
59939;BME280;45801;51.810;19.444;2023-04-02T10:27:12;98905.72;;;4.77;75.65
59939;BME280;45801;51.810;19.444;2023-04-02T10:35:03;98908.73;;;4.72;75.96
59939;BME280;45801;51.810;19.444;2023-04-02T10:40:30;98913.33;;;4.76;75.45
59939;BME280;45801;51.810;19.444;2023-04-02T10:43:18;98914.79;;;4.84;75.84
59939;BME280;45801;51.810;19.444;2023-04-02T10:49:02;98921.21;;;4.89;74.18
59939;BME280;45801;51.810;19.444;2023-04-02T10:51:42;98924.21;;;4.84;74.43
59939;BME280;45801;51.810;19.444;2023-04-02T10:54:53;98930.16;;;4.74;74.17
59939;BME280;45801;51.810;19.444;2023-04-02T10:57:40;98933.17;;;4.63;74.19
59939;BME280;45801;51.810;19.444;2023-04-02T11:02:52;98940.46;;;4.58;74.18
59939;BME280;45801;51.810;19.444;2023-04-02T11:05:42;98940.54;;;4.59;74.69
59939;BME280;45801;51.810;19.444;2023-04-02T11:11:20;98948.16;;;4.73;73.86
59939;BME280;45801;51.810;19.444;2023-04-02T11:16:41;98958.59;;;4.73;74.38
59939;BME280;45801;51.810;19.444;2023-04-02T11:21:43;98971.59;;;4.93;74.78
59939;BME280;45801;51.810;19.444;2023-04-02T11:25:03;98973.42;;;4.98;74.27
59939;BME280;45801;51.810;19.444;2023-04-02T11:27:28;98979.04;;;4.99;73.60
59939;BME280;45801;51.810;19.444;2023-04-02T11:32:40;98989.38;;;5.09;73.13
59939;BME280;45801;51.810;19.444;2023-04-02T11:35:37;98996.05;;;5.04;72.49
59939;BME280;45801;51.810;19.444;2023-04-02T11:40:46;99001.09;;;4.93;73.28
59939;BME280;45801;51.810;19.444;2023-04-02T11:46:03;99009.43;;;4.85;73.80
59939;BME280;45801;51.810;19.444;2023-04-02T11:48:32;99011.23;;;4.92;74.54
59939;BME280;45801;51.810;19.444;2023-04-02T11:53:57;99015.50;;;4.96;72.94
59939;BME280;45801;51.810;19.444;2023-04-02T12:07:45;99024.37;;;5.02;73.55
59939;BME280;45801;51.810;19.444;2023-04-02T12:10:31;99029.83;;;4.97;73.05
59939;BME280;45801;51.810;19.444;2023-04-02T12:12:59;99035.19;;;4.89;73.22
59939;BME280;45801;51.810;19.444;2023-04-02T12:15:42;99037.20;;;4.79;72.98
59939;BME280;45801;51.810;19.444;2023-04-02T12:18:18;99040.02;;;4.74;73.43
59939;BME280;45801;51.810;19.444;2023-04-02T12:20:53;99041.88;;;4.82;73.81
59939;BME280;45801;51.810;19.444;2023-04-02T12:23:27;99042.56;;;4.93;73.68
59939;BME280;45801;51.810;19.444;2023-04-02T12:25:59;99044.36;;;4.97;73.07
59939;BME280;45801;51.810;19.444;2023-04-02T12:28:28;99047.86;;;4.89;72.86
59939;BME280;45801;51.810;19.444;2023-04-02T12:33:39;99051.04;;;4.79;73.25
59939;BME280;45801;51.810;19.444;2023-04-02T12:36:19;99056.76;;;4.59;73.27
59939;BME280;45801;51.810;19.444;2023-04-02T12:38:52;99058.36;;;4.57;74.00
59939;BME280;45801;51.810;19.444;2023-04-02T12:41:25;99061.04;;;4.61;74.23
59939;BME280;45801;51.810;19.444;2023-04-02T12:44:05;99060.87;;;4.69;74.00
59939;BME280;45801;51.810;19.444;2023-04-02T12:46:33;99064.16;;;4.72;73.24
59939;BME280;45801;51.810;19.444;2023-04-02T12:49:06;99067.05;;;4.74;73.33
59939;BME280;45801;51.810;19.444;2023-04-02T12:51:37;99071.69;;;4.67;72.93
59939;BME280;45801;51.810;19.444;2023-04-02T12:54:04;99074.52;;;4.63;73.37
59939;BME280;45801;51.810;19.444;2023-04-02T12:56:31;99074.70;;;4.69;73.59
59939;BME280;45801;51.810;19.444;2023-04-02T12:58:59;99072.49;;;4.67;73.09
59939;BME280;45801;51.810;19.444;2023-04-02T13:01:28;99078.81;;;4.52;72.72
59939;BME280;45801;51.810;19.444;2023-04-02T13:04:04;99082.84;;;4.52;73.35
59939;BME280;45801;51.810;19.444;2023-04-02T13:06:32;99085.84;;;4.51;73.41
59939;BME280;45801;51.810;19.444;2023-04-02T13:09:01;99083.45;;;4.51;73.65
59939;BME280;45801;51.810;19.444;2023-04-02T13:11:36;99088.33;;;4.54;73.48
59939;BME280;45801;51.810;19.444;2023-04-02T13:14:07;99087.67;;;4.60;73.59
59939;BME280;45801;51.810;19.444;2023-04-02T13:16:39;99091.14;;;4.65;73.76
59939;BME280;45801;51.810;19.444;2023-04-02T13:19:28;99089.84;;;4.74;74.00
59939;BME280;45801;51.810;19.444;2023-04-02T13:21:57;99092.48;;;4.86;73.43
59939;BME280;45801;51.810;19.444;2023-04-02T13:24:26;99092.05;;;4.85;72.75
59939;BME280;45801;51.810;19.444;2023-04-02T13:26:56;99094.08;;;4.82;73.15
59939;BME280;45801;51.810;19.444;2023-04-02T13:29:28;99100.61;;;4.83;73.17
59939;BME280;45801;51.810;19.444;2023-04-02T13:31:59;99103.48;;;4.87;73.26
59939;BME280;45801;51.810;19.444;2023-04-02T13:34:26;99107.69;;;4.96;73.44
59939;BME280;45801;51.810;19.444;2023-04-02T13:36:53;99111.83;;;5.04;73.44
59939;BME280;45801;51.810;19.444;2023-04-02T13:39:20;99115.99;;;5.04;72.92
59939;BME280;45801;51.810;19.444;2023-04-02T13:41:54;99119.95;;;4.95;72.71
59939;BME280;45801;51.810;19.444;2023-04-02T13:44:29;99122.36;;;4.81;73.02
59939;BME280;45801;51.810;19.444;2023-04-02T13:46:57;99125.14;;;4.73;73.67
59939;BME280;45801;51.810;19.444;2023-04-02T13:49:24;99129.58;;;4.72;74.09
59939;BME280;45801;51.810;19.444;2023-04-02T13:51:53;99130.56;;;4.76;74.23
59939;BME280;45801;51.810;19.444;2023-04-02T13:54:28;99134.88;;;4.73;73.72
59939;BME280;45801;51.810;19.444;2023-04-02T13:56:56;99137.86;;;4.74;73.77
59939;BME280;45801;51.810;19.444;2023-04-02T13:59:24;99137.19;;;4.66;73.82
59939;BME280;45801;51.810;19.444;2023-04-02T14:01:56;99140.25;;;4.66;74.00
59939;BME280;45801;51.810;19.444;2023-04-02T14:04:26;99141.60;;;4.73;74.39
59939;BME280;45801;51.810;19.444;2023-04-02T14:07:17;99142.84;;;4.79;74.01
59939;BME280;45801;51.810;19.444;2023-04-02T14:10:17;99148.73;;;4.78;74.17
59939;BME280;45801;51.810;19.444;2023-04-02T14:12:54;99149.53;;;4.77;73.98
59939;BME280;45801;51.810;19.444;2023-04-02T14:15:42;99154.06;;;4.75;74.11
59939;BME280;45801;51.810;19.444;2023-04-02T14:21:17;99164.72;;;4.76;74.14
59939;BME280;45801;51.810;19.444;2023-04-02T14:23:57;99167.16;;;4.79;74.15
59939;BME280;45801;51.810;19.444;2023-04-02T14:29:16;99175.46;;;4.84;74.43
59939;BME280;45801;51.810;19.444;2023-04-02T14:31:53;99175.20;;;4.83;73.82
59939;BME280;45801;51.810;19.444;2023-04-02T14:37:38;99185.63;;;4.67;73.89
59939;BME280;45801;51.810;19.444;2023-04-02T14:43:10;99193.48;;;4.65;74.62
59939;BME280;45801;51.810;19.444;2023-04-02T14:50:58;99201.66;;;4.71;74.11
59939;BME280;45801;51.810;19.444;2023-04-02T14:53:31;99204.18;;;4.69;73.99
59939;BME280;45801;51.810;19.444;2023-04-02T14:56:05;99207.60;;;4.69;73.99
59939;BME280;45801;51.810;19.444;2023-04-02T14:58:37;99208.49;;;4.72;74.24
59939;BME280;45801;51.810;19.444;2023-04-02T15:01:17;99212.16;;;4.72;73.78
59939;BME280;45801;51.810;19.444;2023-04-02T15:03:59;99212.14;;;4.66;73.62
59939;BME280;45801;51.810;19.444;2023-04-02T15:06:34;99218.00;;;4.60;73.70
59939;BME280;45801;51.810;19.444;2023-04-02T15:09:05;99221.35;;;4.58;73.41
59939;BME280;45801;51.810;19.444;2023-04-02T15:11:53;99223.38;;;4.55;72.81
59939;BME280;45801;51.810;19.444;2023-04-02T15:14:26;99227.70;;;4.50;72.94
59939;BME280;45801;51.810;19.444;2023-04-02T15:16:55;99230.51;;;4.37;72.22
59939;BME280;45801;51.810;19.444;2023-04-02T15:19:22;99232.63;;;4.30;72.95
59939;BME280;45801;51.810;19.444;2023-04-02T15:22:12;99242.14;;;4.20;73.13
59939;BME280;45801;51.810;19.444;2023-04-02T15:24:50;99243.26;;;4.08;73.18
59939;BME280;45801;51.810;19.444;2023-04-02T15:30:09;99252.13;;;4.01;73.59
59939;BME280;45801;51.810;19.444;2023-04-02T15:32:38;99256.48;;;3.89;73.50
59939;BME280;45801;51.810;19.444;2023-04-02T15:35:28;99259.10;;;3.87;73.92
59939;BME280;45801;51.810;19.444;2023-04-02T15:40:38;99268.05;;;3.83;73.87
59939;BME280;45801;51.810;19.444;2023-04-02T15:43:18;99275.29;;;3.80;73.77
59939;BME280;45801;51.810;19.444;2023-04-02T15:46:31;99280.20;;;3.76;73.82
59939;BME280;45801;51.810;19.444;2023-04-02T15:52:04;99283.20;;;3.57;73.48
59939;BME280;45801;51.810;19.444;2023-04-02T15:57:44;99288.85;;;3.40;74.22
59939;BME280;45801;51.810;19.444;2023-04-02T16:00:22;99295.77;;;3.37;74.40
59939;BME280;45801;51.810;19.444;2023-04-02T16:06:19;99303.55;;;3.35;74.60